createdAt,value
2023-05-01T00:01:53.438Z,101799.00
2023-05-01T00:04:21.932Z,101801.16
2023-05-01T00:06:48.486Z,101795.50
2023-05-01T00:09:15.182Z,101794.22
2023-05-01T00:11:41.644Z,101792.03
2023-05-01T00:14:08.162Z,101790.78
2023-05-01T00:16:36.243Z,101784.41
2023-05-01T00:19:04.121Z,101795.03
2023-05-01T00:21:31.017Z,101773.97
2023-05-01T00:23:57.564Z,101773.75
2023-05-01T00:26:27.122Z,101771.66
2023-05-01T00:28:53.570Z,101782.78
2023-05-01T00:31:20.055Z,101768.41
2023-05-01T00:33:46.496Z,101765.84
2023-05-01T00:36:12.978Z,101766.59
2023-05-01T00:38:39.676Z,101768.72
2023-05-01T00:41:06.146Z,101762.19
2023-05-01T00:43:32.723Z,101761.22
2023-05-01T00:45:59.394Z,101751.00
2023-05-01T00:48:26.124Z,101763.22
2023-05-01T00:50:53.324Z,101752.34
2023-05-01T00:53:20.532Z,101745.53
2023-05-01T00:55:47.451Z,101747.31
2023-05-01T00:58:17.581Z,101739.59
2023-05-01T01:00:44.582Z,101741.03
2023-05-01T01:03:11.726Z,101742.59
2023-05-01T01:05:45.453Z,101739.94
2023-05-01T01:08:31.261Z,101739.81
2023-05-01T01:11:34.737Z,101733.47
2023-05-01T01:14:13.290Z,101728.63
2023-05-01T01:16:44.852Z,101735.03
2023-05-01T01:19:20.726Z,101727.38
2023-05-01T01:21:50.401Z,101721.38
2023-05-01T01:24:32.358Z,101721.00
2023-05-01T01:27:36.261Z,101720.56
2023-05-01T01:30:27.058Z,101723.75
2023-05-01T01:33:07.365Z,101722.97
2023-05-01T01:35:34.278Z,101718.44
2023-05-01T01:38:05.104Z,101719.50
2023-05-01T01:40:49.461Z,101726.75
2023-05-01T01:43:17.493Z,101709.66
2023-05-01T01:45:47.462Z,101712.16
2023-05-01T01:48:17.782Z,101714.06
2023-05-01T01:50:45.805Z,101712.75
2023-05-01T01:53:17.422Z,101706.84
2023-05-01T01:55:44.962Z,101706.00
2023-05-01T01:58:12.150Z,101702.06
2023-05-01T02:00:41.956Z,101700.75
2023-05-01T02:03:09.458Z,101706.44
2023-05-01T02:05:36.565Z,101695.09
2023-05-01T02:08:05.238Z,101698.69
2023-05-01T02:10:32.922Z,101683.84
2023-05-01T02:13:00.544Z,101687.06
2023-05-01T02:15:28.083Z,101686.03
2023-05-01T02:17:55.010Z,101690.25
2023-05-01T02:20:22.152Z,101681.25
2023-05-01T02:22:49.585Z,101676.63
2023-05-01T02:25:16.779Z,101676.38
2023-05-01T02:28:07.433Z,101676.44
2023-05-01T02:30:33.942Z,101670.00
2023-05-01T02:33:00.477Z,101666.16
2023-05-01T02:35:27.108Z,101659.94
2023-05-01T02:37:53.736Z,101662.00
2023-05-01T02:40:20.243Z,101666.84
2023-05-01T02:42:48.592Z,101657.50
2023-05-01T02:45:20.112Z,101657.22
2023-05-01T02:47:49.829Z,101658.72
2023-05-01T02:50:17.157Z,101648.09
2023-05-01T02:52:44.890Z,101655.47
2023-05-01T02:55:11.546Z,101649.03
2023-05-01T02:57:38.418Z,101643.16
2023-05-01T03:00:09.403Z,101636.94
2023-05-01T03:02:35.998Z,101639.50
2023-05-01T03:05:02.525Z,101634.81
2023-05-01T03:07:35.037Z,101629.69
2023-05-01T03:10:06.212Z,101641.06
2023-05-01T03:12:32.719Z,101625.34
2023-05-01T03:14:59.379Z,101617.28
2023-05-01T03:17:26.208Z,101622.44
2023-05-01T03:19:52.743Z,101617.09
2023-05-01T03:22:19.344Z,101614.97
2023-05-01T03:24:47.491Z,101614.16
2023-05-01T03:27:14.319Z,101611.03
2023-05-01T03:29:40.791Z,101609.00
2023-05-01T03:32:07.367Z,101604.09
2023-05-01T03:34:34.277Z,101600.81
2023-05-01T03:37:00.788Z,101606.25
2023-05-01T03:39:27.224Z,101610.41
2023-05-01T03:41:53.670Z,101599.97
2023-05-01T03:44:20.133Z,101605.03
2023-05-01T03:46:46.847Z,101595.03
2023-05-01T03:49:13.381Z,101598.38
2023-05-01T03:51:39.873Z,101599.53
2023-05-01T03:54:06.395Z,101597.88
2023-05-01T03:56:35.796Z,101589.09
2023-05-01T03:59:02.613Z,101591.75
2023-05-01T04:01:29.073Z,101586.66
2023-05-01T04:03:55.625Z,101597.78
2023-05-01T04:06:22.915Z,101588.06
2023-05-01T04:08:49.399Z,101580.50
2023-05-01T04:11:16.037Z,101575.25
2023-05-01T04:13:42.557Z,101575.72
2023-05-01T04:16:09.174Z,101581.81
2023-05-01T04:18:35.724Z,101571.81
2023-05-01T04:21:02.594Z,101578.66
2023-05-01T04:23:29.048Z,101574.31
2023-05-01T04:25:55.527Z,101571.72
2023-05-01T04:28:21.974Z,101568.81
2023-05-01T04:30:48.512Z,101565.28
2023-05-01T04:33:14.959Z,101559.22
2023-05-01T04:35:42.239Z,101565.31
2023-05-01T04:38:10.421Z,101566.88
2023-05-01T04:40:36.942Z,101567.91
2023-05-01T04:43:03.408Z,101555.72
2023-05-01T04:45:29.898Z,101562.84
2023-05-01T04:47:56.723Z,101552.47
2023-05-01T04:50:23.233Z,101554.22
2023-05-01T04:52:49.706Z,101545.47
2023-05-01T04:55:16.616Z,101546.47
2023-05-01T04:57:43.060Z,101551.53
2023-05-01T05:00:10.072Z,101552.06
2023-05-01T05:02:36.586Z,101547.06
2023-05-01T05:05:03.351Z,101544.91
2023-05-01T05:07:30.291Z,101556.47
2023-05-01T05:09:56.922Z,101553.88
2023-05-01T05:12:23.584Z,101551.94
2023-05-01T05:14:50.087Z,101553.59
2023-05-01T05:17:16.571Z,101556.13
2023-05-01T05:19:43.032Z,101554.41
2023-05-01T05:22:09.520Z,101557.94
2023-05-01T05:24:35.991Z,101553.06
2023-05-01T05:27:04.100Z,101548.81
2023-05-01T05:29:30.531Z,101547.56
2023-05-01T05:31:57.899Z,101547.22
2023-05-01T05:34:24.478Z,101550.97
2023-05-01T05:36:50.968Z,101540.56
2023-05-01T05:39:17.822Z,101540.56
2023-05-01T05:41:44.295Z,101543.16
2023-05-01T05:44:11.324Z,101542.22
2023-05-01T05:46:37.851Z,101534.56
2023-05-01T05:49:04.298Z,101529.72
2023-05-01T05:51:31.635Z,101533.16
2023-05-01T05:53:58.058Z,101524.78
2023-05-01T05:56:24.524Z,101524.72
2023-05-01T05:58:50.989Z,101517.78
2023-05-01T06:01:17.817Z,101518.41
2023-05-01T06:03:44.361Z,101520.03
2023-05-01T06:06:11.097Z,101511.13
2023-05-01T06:08:37.835Z,101511.91
2023-05-01T06:11:04.519Z,101514.59
2023-05-01T06:13:31.092Z,101516.59
2023-05-01T06:15:57.564Z,101506.41
2023-05-01T06:18:24.187Z,101504.81
2023-05-01T06:20:51.135Z,101504.22
2023-05-01T06:23:17.656Z,101503.03
2023-05-01T06:25:44.367Z,101510.63
2023-05-01T06:28:11.133Z,101502.13
2023-05-01T06:30:37.571Z,101498.16
2023-05-01T06:33:04.379Z,101495.44
2023-05-01T06:35:30.969Z,101495.38
2023-05-01T06:37:57.511Z,101489.53
2023-05-01T06:40:23.956Z,101485.00
2023-05-01T06:42:50.484Z,101490.25
2023-05-01T06:45:17.000Z,101482.53
2023-05-01T06:47:43.533Z,101482.06
2023-05-01T06:50:10.555Z,101475.72
2023-05-01T06:52:37.025Z,101482.16
2023-05-01T06:55:04.134Z,101479.94
2023-05-01T06:57:31.091Z,101479.00
2023-05-01T06:59:57.751Z,101472.28
2023-05-01T07:02:24.605Z,101464.31
2023-05-01T07:04:51.136Z,101457.31
2023-05-01T07:07:17.603Z,101467.47
2023-05-01T07:09:44.055Z,101458.47
2023-05-01T07:12:10.842Z,101454.31
2023-05-01T07:14:37.352Z,101449.28
2023-05-01T07:17:04.055Z,101452.28
2023-05-01T07:19:30.608Z,101456.50
2023-05-01T07:21:57.382Z,101443.59
2023-05-01T07:24:23.904Z,101442.66
2023-05-01T07:26:50.481Z,101440.91
2023-05-01T07:29:17.258Z,101431.59
2023-05-01T07:31:44.624Z,101426.50
2023-05-01T07:34:11.815Z,101429.91
2023-05-01T07:36:38.740Z,101410.75
2023-05-01T07:39:06.665Z,101416.22
2023-05-01T07:41:33.349Z,101416.09
2023-05-01T07:44:00.167Z,101417.91
2023-05-01T07:46:27.149Z,101412.63
2023-05-01T07:48:53.907Z,101408.28
2023-05-01T07:51:20.450Z,101405.69
2023-05-01T07:53:47.430Z,101401.31
2023-05-01T07:56:13.927Z,101404.84
2023-05-01T07:58:42.559Z,101390.75
2023-05-01T08:01:09.261Z,101388.09
2023-05-01T08:03:36.029Z,101386.44
2023-05-01T08:06:02.706Z,101382.94
2023-05-01T08:08:29.291Z,101382.00
2023-05-01T08:10:56.231Z,101379.44
2023-05-01T08:13:22.819Z,101374.13
2023-05-01T08:15:49.467Z,101375.00
2023-05-01T08:18:20.493Z,101368.66
2023-05-01T08:20:48.294Z,101369.47
2023-05-01T08:23:18.792Z,101369.34
2023-05-01T08:25:51.099Z,101368.44
2023-05-01T08:28:21.325Z,101371.22
2023-05-01T08:30:49.331Z,101365.94
2023-05-01T08:33:16.527Z,101367.47
2023-05-01T08:35:43.296Z,101356.22
2023-05-01T08:38:11.290Z,101365.00
2023-05-01T08:40:38.772Z,101365.06
2023-05-01T08:43:05.327Z,101366.84
2023-05-01T08:45:36.142Z,101363.34
2023-05-01T08:48:06.101Z,101355.31
2023-05-01T08:50:39.053Z,101358.56
2023-05-01T08:53:06.468Z,101353.16
2023-05-01T08:55:34.042Z,101344.66
2023-05-01T08:58:01.456Z,101337.28
2023-05-01T09:00:29.259Z,101352.34
2023-05-01T09:02:56.635Z,101336.50
2023-05-01T09:05:23.114Z,101340.91
2023-05-01T09:07:50.759Z,101338.31
2023-05-01T09:10:18.886Z,101335.97
2023-05-01T09:12:47.690Z,101325.44
2023-05-01T09:15:14.365Z,101331.81
2023-05-01T09:17:42.575Z,101333.13
2023-05-01T09:20:10.481Z,101335.69
2023-05-01T09:22:37.111Z,101319.13
2023-05-01T09:25:04.233Z,101329.81
2023-05-01T09:27:35.788Z,101321.78
2023-05-01T09:30:03.162Z,101317.16
2023-05-01T09:32:29.883Z,101310.09
2023-05-01T09:35:12.763Z,101299.91
2023-05-01T09:37:39.658Z,101303.44
2023-05-01T09:40:06.866Z,101304.91
2023-05-01T09:42:36.046Z,101303.41
2023-05-01T09:45:05.887Z,101310.16
2023-05-01T09:47:34.318Z,101301.41
2023-05-01T09:50:00.985Z,101302.19
2023-05-01T09:52:28.861Z,101292.19
2023-05-01T09:55:15.667Z,101288.84
2023-05-01T09:57:43.622Z,101285.28
2023-05-01T10:00:12.344Z,101285.06
2023-05-01T10:02:39.884Z,101287.03
2023-05-01T10:05:07.496Z,101280.38
2023-05-01T10:07:34.636Z,101284.44
2023-05-01T10:10:21.416Z,101277.13
2023-05-01T10:12:49.343Z,101277.63
2023-05-01T10:15:24.465Z,101269.91
2023-05-01T10:17:54.173Z,101264.66
2023-05-01T10:20:21.562Z,101267.59
2023-05-01T10:22:49.354Z,101266.84
2023-05-01T10:25:18.193Z,101259.09
2023-05-01T10:27:45.359Z,101246.09
2023-05-01T10:30:12.998Z,101256.84
2023-05-01T10:32:43.301Z,101258.53
2023-05-01T10:35:20.742Z,101248.53
2023-05-01T10:37:49.612Z,101247.97
2023-05-01T10:40:44.381Z,101234.03
2023-05-01T10:43:16.317Z,101229.13
2023-05-01T10:45:47.817Z,101215.84
2023-05-01T10:48:39.808Z,101218.34
2023-05-01T10:51:48.069Z,101222.84
2023-05-01T10:54:14.772Z,101214.38
2023-05-01T10:56:43.471Z,101212.38
2023-05-01T10:59:11.806Z,101201.91
2023-05-01T11:01:40.308Z,101209.16
2023-05-01T11:04:19.548Z,101206.88
2023-05-01T11:07:08.873Z,101201.75
2023-05-01T11:09:55.551Z,101199.63
2023-05-01T11:12:47.624Z,101200.53
2023-05-01T11:15:33.985Z,101189.44
2023-05-01T11:18:02.601Z,101181.28
2023-05-01T11:20:29.586Z,101186.44
2023-05-01T11:22:57.567Z,101187.88
2023-05-01T11:25:28.015Z,101177.97
2023-05-01T11:27:57.219Z,101184.94
2023-05-01T11:30:24.700Z,101181.09
2023-05-01T11:32:52.054Z,101164.38
2023-05-01T11:35:23.789Z,101169.81
2023-05-01T11:37:56.890Z,101169.13
2023-05-01T11:40:24.328Z,101164.72
2023-05-01T11:42:52.562Z,101156.00
2023-05-01T11:45:19.805Z,101146.53
2023-05-01T11:47:46.461Z,101143.81
2023-05-01T11:50:13.308Z,101141.63
2023-05-01T11:52:52.921Z,101143.69
2023-05-01T11:55:20.095Z,101138.69
2023-05-01T11:57:52.001Z,101131.34
2023-05-01T12:00:39.721Z,101137.34
2023-05-01T12:03:14.538Z,101138.19
2023-05-01T12:05:43.231Z,101131.53
2023-05-01T12:08:23.527Z,101136.66
2023-05-01T12:10:53.974Z,101132.06
2023-05-01T12:13:20.686Z,101134.00
2023-05-01T12:15:52.477Z,101140.66
2023-05-01T12:18:19.642Z,101125.28
2023-05-01T12:20:50.259Z,101123.22
2023-05-01T12:23:16.941Z,101122.13
2023-05-01T12:25:44.994Z,101116.81
2023-05-01T12:28:19.039Z,101111.75
2023-05-01T12:30:47.441Z,101115.81
2023-05-01T12:33:15.909Z,101120.22
2023-05-01T12:35:46.656Z,101107.19
2023-05-01T12:38:21.021Z,101113.59
2023-05-01T12:40:54.971Z,101107.00
2023-05-01T12:43:23.611Z,101112.59
2023-05-01T12:45:52.635Z,101114.00
2023-05-01T12:48:19.799Z,101100.50
2023-05-01T12:50:48.100Z,101107.34
2023-05-01T12:53:15.402Z,101094.81
2023-05-01T12:55:52.346Z,101103.16
2023-05-01T12:58:19.295Z,101109.56
2023-05-01T13:00:48.200Z,101098.00
2023-05-01T13:03:17.322Z,101093.00
2023-05-01T13:05:57.332Z,101089.97
2023-05-01T13:08:37.142Z,101093.97
2023-05-01T13:11:12.923Z,101090.16
2023-05-01T13:13:40.017Z,101078.16
2023-05-01T13:16:06.750Z,101083.47
2023-05-01T13:18:34.381Z,101082.97
2023-05-01T13:21:08.919Z,101083.00
2023-05-01T13:23:39.480Z,101090.59
2023-05-01T13:26:07.265Z,101083.78
2023-05-01T13:28:35.556Z,101089.09
2023-05-01T13:31:02.294Z,101086.75
2023-05-01T13:33:31.409Z,101083.84
2023-05-01T13:35:58.034Z,101085.13
2023-05-01T13:38:25.109Z,101076.09
2023-05-01T13:40:51.674Z,101081.84
2023-05-01T13:43:18.188Z,101072.50
2023-05-01T13:45:44.699Z,101067.09
2023-05-01T13:48:11.431Z,101075.81
2023-05-01T13:50:40.456Z,101064.84
2023-05-01T13:53:07.002Z,101061.00
2023-05-01T13:55:33.506Z,101061.75
2023-05-01T13:58:01.020Z,101055.59
2023-05-01T14:00:27.535Z,101058.78
2023-05-01T14:02:56.511Z,101060.88
2023-05-01T14:05:29.265Z,101055.69
2023-05-01T14:07:58.287Z,101055.47
2023-05-01T14:10:28.038Z,101061.75
2023-05-01T14:12:58.865Z,101068.09
2023-05-01T14:15:25.712Z,101066.28
2023-05-01T14:17:53.059Z,101056.16
2023-05-01T14:20:19.748Z,101051.97
2023-05-01T14:22:51.911Z,101051.78
2023-05-01T14:25:25.564Z,101054.81
2023-05-01T14:27:53.560Z,101046.06
2023-05-01T14:30:27.704Z,101050.78
2023-05-01T14:32:55.297Z,101050.50
2023-05-01T14:35:23.598Z,101049.97
2023-05-01T14:37:50.593Z,101040.38
2023-05-01T14:40:18.686Z,101044.44
2023-05-01T14:42:45.524Z,101041.25
2023-05-01T14:45:15.212Z,101042.44
2023-05-01T14:47:47.410Z,101043.47
2023-05-01T14:50:20.700Z,101045.81
2023-05-01T14:52:48.275Z,101038.41
2023-05-01T14:55:17.773Z,101033.56
2023-05-01T14:57:44.967Z,101032.56
2023-05-01T15:00:12.084Z,101042.44
2023-05-01T15:02:39.291Z,101038.97
2023-05-01T15:05:06.272Z,101036.34
2023-05-01T15:07:32.740Z,101033.06
2023-05-01T15:09:59.456Z,101030.97
2023-05-01T15:12:26.259Z,101032.22
2023-05-01T15:14:52.749Z,101041.47
2023-05-01T15:17:19.179Z,101039.94
2023-05-01T15:19:45.807Z,101032.06
2023-05-01T15:22:12.279Z,101038.66
2023-05-01T15:24:39.293Z,101022.47
2023-05-01T15:27:06.082Z,101031.41
2023-05-01T15:29:32.590Z,101032.84
2023-05-01T15:32:11.412Z,101031.59
2023-05-01T15:34:39.039Z,101028.16
2023-05-01T15:37:05.538Z,101028.44
2023-05-01T15:39:33.260Z,101034.41
2023-05-01T15:42:00.902Z,101030.59
2023-05-01T15:44:29.198Z,101033.81
2023-05-01T15:46:55.999Z,101032.59
2023-05-01T15:49:22.710Z,101026.50
2023-05-01T15:51:49.186Z,101024.19
2023-05-01T15:54:15.689Z,101028.97
2023-05-01T15:56:42.207Z,101023.34
2023-05-01T15:59:08.755Z,101032.34
2023-05-01T16:01:35.522Z,101022.81
2023-05-01T16:04:02.982Z,101031.63
2023-05-01T16:06:30.218Z,101026.84
2023-05-01T16:08:59.075Z,101029.94
2023-05-01T16:11:25.602Z,101023.63
2023-05-01T16:13:54.235Z,101020.69
2023-05-01T16:16:26.032Z,101020.75
2023-05-01T16:18:59.345Z,101027.25
2023-05-01T16:21:26.764Z,101025.41
2023-05-01T16:23:55.923Z,101031.88
2023-05-01T16:26:26.142Z,101026.72
2023-05-01T16:29:06.361Z,101028.09
2023-05-01T16:31:38.964Z,101030.63
2023-05-01T16:34:07.432Z,101024.53
2023-05-01T16:36:35.673Z,101033.41
2023-05-01T16:39:02.293Z,101037.75
2023-05-01T16:41:28.822Z,101034.06
2023-05-01T16:43:58.658Z,101036.78
2023-05-01T16:46:25.789Z,101033.19
2023-05-01T16:48:52.649Z,101035.97
2023-05-01T16:51:20.036Z,101033.66
2023-05-01T16:53:46.592Z,101040.25
2023-05-01T16:56:13.083Z,101037.09
2023-05-01T16:58:39.538Z,101049.38
2023-05-01T17:01:06.114Z,101042.44
2023-05-01T17:03:32.668Z,101044.69
2023-05-01T17:05:59.351Z,101053.13
2023-05-01T17:08:26.177Z,101050.59
2023-05-01T17:10:52.678Z,101045.22
2023-05-01T17:13:19.601Z,101045.41
2023-05-01T17:15:46.180Z,101047.41
2023-05-01T17:18:12.794Z,101039.09
2023-05-01T17:20:39.300Z,101047.53
2023-05-01T17:23:05.784Z,101037.84
2023-05-01T17:25:32.290Z,101049.97
2023-05-01T17:27:59.263Z,101051.94
2023-05-01T17:30:25.854Z,101048.50
2023-05-01T17:32:53.133Z,101044.09
2023-05-01T17:35:19.725Z,101051.22
2023-05-01T17:37:46.161Z,101051.09
2023-05-01T17:40:12.880Z,101051.34
2023-05-01T17:42:39.888Z,101059.25
2023-05-01T17:45:07.916Z,101057.59
2023-05-01T17:47:34.686Z,101065.19
2023-05-01T17:50:04.736Z,101062.88
2023-05-01T17:52:31.383Z,101063.94
2023-05-01T17:54:58.307Z,101070.16
2023-05-01T17:57:24.889Z,101072.81
2023-05-01T17:59:51.380Z,101071.91
2023-05-01T18:02:18.177Z,101070.22
2023-05-01T18:04:45.984Z,101071.91
2023-05-01T18:07:12.643Z,101070.03
2023-05-01T18:09:39.095Z,101065.81
2023-05-01T18:12:05.706Z,101071.84
2023-05-01T18:14:32.312Z,101068.25
2023-05-01T18:16:58.878Z,101072.81
2023-05-01T18:19:25.370Z,101078.13
2023-05-01T18:21:51.827Z,101079.88
2023-05-01T18:24:18.304Z,101078.19
2023-05-01T18:26:44.760Z,101075.41
2023-05-01T18:29:13.140Z,101076.41
2023-05-01T18:31:39.725Z,101078.09
2023-05-01T18:34:10.269Z,101072.94
2023-05-01T18:36:36.857Z,101074.69
2023-05-01T18:39:03.409Z,101080.75
2023-05-01T18:41:30.197Z,101081.69
2023-05-01T18:43:58.153Z,101091.28
2023-05-01T18:46:24.830Z,101085.19
2023-05-01T18:48:51.648Z,101084.31
2023-05-01T18:51:18.254Z,101084.34
2023-05-01T18:53:44.831Z,101094.81
2023-05-01T18:56:11.377Z,101098.34
2023-05-01T18:58:39.889Z,101095.69
2023-05-01T19:01:06.791Z,101099.22
2023-05-01T19:03:33.452Z,101089.56
2023-05-01T19:06:00.025Z,101097.44
2023-05-01T19:08:26.530Z,101103.59
2023-05-01T19:10:52.998Z,101108.81
2023-05-01T19:13:19.517Z,101109.69
2023-05-01T19:15:46.484Z,101107.06
2023-05-01T19:18:13.175Z,101116.66
2023-05-01T19:20:39.705Z,101114.88
2023-05-01T19:23:06.254Z,101119.28
2023-05-01T19:25:33.613Z,101117.50
2023-05-01T19:28:02.330Z,101119.28
2023-05-01T19:30:28.978Z,101121.78
2023-05-01T19:32:55.558Z,101125.34
2023-05-01T19:35:22.069Z,101126.06
2023-05-01T19:37:53.861Z,101125.16
2023-05-01T19:40:20.582Z,101124.44
2023-05-01T19:42:47.079Z,101130.50
2023-05-01T19:45:14.717Z,101123.31
2023-05-01T19:47:42.557Z,101126.84
2023-05-01T19:50:09.622Z,101126.03
2023-05-01T19:52:36.093Z,101118.91
2023-05-01T19:55:05.021Z,101119.09
2023-05-01T19:57:31.592Z,101125.06
2023-05-01T20:00:01.306Z,101127.59
2023-05-01T20:02:28.647Z,101130.28
2023-05-01T20:04:55.307Z,101129.22
2023-05-01T20:07:21.882Z,101133.59
2023-05-01T20:09:48.954Z,101130.94
2023-05-01T20:12:15.530Z,101136.16
2023-05-01T20:14:42.136Z,101146.59
2023-05-01T20:17:09.371Z,101133.47
2023-05-01T20:19:39.413Z,101137.81
2023-05-01T20:22:06.382Z,101130.91
2023-05-01T20:24:32.910Z,101133.75
2023-05-01T20:26:59.616Z,101142.53
2023-05-01T20:29:27.053Z,101139.19
2023-05-01T20:31:53.721Z,101138.25
2023-05-01T20:34:20.880Z,101143.41
2023-05-01T20:36:47.360Z,101148.78
2023-05-01T20:39:14.055Z,101151.84
2023-05-01T20:41:40.660Z,101152.09
2023-05-01T20:44:08.876Z,101156.41
2023-05-01T20:46:35.410Z,101156.53
2023-05-01T20:49:01.945Z,101158.13
2023-05-01T20:51:28.415Z,101157.75
2023-05-01T20:53:54.899Z,101158.03
2023-05-01T20:56:21.382Z,101149.41
2023-05-01T20:58:47.872Z,101149.22
2023-05-01T21:01:14.354Z,101145.44
2023-05-01T21:03:41.156Z,101155.38
2023-05-01T21:06:07.845Z,101153.78
2023-05-01T21:08:34.310Z,101158.19
2023-05-01T21:11:02.125Z,101153.81
2023-05-01T21:13:28.747Z,101150.34
2023-05-01T21:15:55.748Z,101163.22
2023-05-01T21:18:24.195Z,101157.03
2023-05-01T21:20:51.402Z,101156.22
2023-05-01T21:23:18.077Z,101153.56
2023-05-01T21:25:44.682Z,101168.44
2023-05-01T21:28:14.524Z,101163.25
2023-05-01T21:30:41.549Z,101171.84
2023-05-01T21:33:12.273Z,101162.19
2023-05-01T21:35:41.776Z,101160.41
2023-05-01T21:38:08.826Z,101168.28
2023-05-01T21:40:41.779Z,101170.06
2023-05-01T21:43:09.128Z,101165.78
2023-05-01T21:45:40.298Z,101175.28
2023-05-01T21:48:14.354Z,101178.94
2023-05-01T21:50:40.864Z,101172.81
2023-05-01T21:53:09.560Z,101171.00
2023-05-01T21:55:36.057Z,101174.53
2023-05-01T21:58:02.699Z,101174.50
2023-05-01T22:00:30.021Z,101181.31
2023-05-01T22:02:56.894Z,101177.16
2023-05-01T22:05:23.498Z,101179.72
2023-05-01T22:07:52.162Z,101177.06
2023-05-01T22:10:19.761Z,101180.69
2023-05-01T22:12:46.945Z,101178.03
2023-05-01T22:15:15.028Z,101185.78
2023-05-01T22:17:41.558Z,101181.66
2023-05-01T22:20:11.572Z,101187.38
2023-05-01T22:22:40.036Z,101191.84
2023-05-01T22:25:07.345Z,101187.59
2023-05-01T22:27:34.637Z,101189.31
2023-05-01T22:30:03.903Z,101192.91
2023-05-01T22:32:30.516Z,101193.59
2023-05-01T22:34:57.077Z,101195.13
2023-05-01T22:37:25.504Z,101199.66
2023-05-01T22:39:52.796Z,101200.47
2023-05-01T22:42:19.354Z,101209.28
2023-05-01T22:44:45.880Z,101210.81
2023-05-01T22:47:12.452Z,101210.31
2023-05-01T22:49:39.026Z,101214.44
2023-05-01T22:52:05.595Z,101216.91
2023-05-01T22:54:32.167Z,101214.50
2023-05-01T22:56:58.713Z,101214.53
2023-05-01T22:59:26.018Z,101220.47
2023-05-01T23:01:53.018Z,101207.25
2023-05-01T23:04:20.122Z,101205.94
2023-05-01T23:06:46.958Z,101212.41
2023-05-01T23:09:13.880Z,101223.25
2023-05-01T23:11:41.007Z,101215.72
2023-05-01T23:14:07.699Z,101222.78
2023-05-01T23:16:41.683Z,101226.84
2023-05-01T23:19:21.819Z,101227.34
2023-05-01T23:21:49.581Z,101227.03
2023-05-01T23:24:18.418Z,101226.00
2023-05-01T23:26:45.816Z,101219.78
2023-05-01T23:29:13.533Z,101216.66
2023-05-01T23:31:46.483Z,101221.94
2023-05-01T23:34:17.584Z,101224.09
2023-05-01T23:36:46.041Z,101223.75
2023-05-01T23:39:12.739Z,101224.56
2023-05-01T23:41:39.559Z,101219.69
2023-05-01T23:44:06.501Z,101220.66
2023-05-01T23:46:33.062Z,101210.41
2023-05-01T23:48:59.682Z,101203.16
2023-05-01T23:51:27.782Z,101202.13
2023-05-01T23:53:54.341Z,101202.19
2023-05-01T23:56:20.807Z,101206.16
2023-05-01T23:58:47.232Z,101213.06
